Blytheville, Arkansas International Airport (KBYH)

NameArkansas International Airport
CityBlytheville
CountryUnited States
ICAOKBYH
IATABYH
Altitude77 m
CoordinatesGoogle Map
Live Air TrafficLiveATC.net
METARKBYH 112250Z 20009G18KT 10SM FEW250 07/02 A3021
2018-12-11 22:50:00 Wind: South (200°) 4.63 m/s - Visibility: 16093.4 m - Temperature: 7 °C - Dew point: 2 °C - Humidity: 70.8% - Pressure: 1023.03 hPa
Statistics

The table below shows the detailed information of all flights to/from Blytheville, Arkansas International Airport (KBYH).